createdAt,value
2022-09-26T00:01:42.993Z,26.30
2022-09-26T00:04:16.092Z,23.70
2022-09-26T00:06:44.334Z,23.10
2022-09-26T00:09:14.907Z,25.00
2022-09-26T00:11:43.327Z,29.50
2022-09-26T00:14:20.365Z,24.70
2022-09-26T00:16:48.807Z,24.40
2022-09-26T00:19:17.703Z,23.80
2022-09-26T00:21:45.966Z,23.20
2022-09-26T00:24:15.139Z,24.00
2022-09-26T00:26:43.781Z,23.20
2022-09-26T00:29:13.973Z,23.20
2022-09-26T00:31:45.047Z,22.90
2022-09-26T00:34:17.945Z,26.70
2022-09-26T00:36:46.289Z,22.20
2022-09-26T00:39:16.695Z,24.00
2022-09-26T00:41:45.782Z,21.10
2022-09-26T00:44:37.617Z,24.90
2022-09-26T00:47:11.563Z,27.60
2022-09-26T00:49:44.720Z,24.50
2022-09-26T00:52:22.066Z,22.60
2022-09-26T00:54:54.959Z,23.00
2022-09-26T00:57:29.752Z,25.40
2022-09-26T01:00:02.811Z,22.70
2022-09-26T01:02:31.531Z,25.90
2022-09-26T01:05:00.957Z,23.80
2022-09-26T01:07:30.279Z,23.80
2022-09-26T01:09:59.354Z,23.10
2022-09-26T01:12:27.772Z,23.60
2022-09-26T01:14:58.319Z,28.30
2022-09-26T01:17:27.619Z,25.60
2022-09-26T01:20:11.866Z,26.10
2022-09-26T01:23:04.299Z,24.40
2022-09-26T01:25:50.902Z,24.90
2022-09-26T01:28:44.009Z,25.00
2022-09-26T01:32:06.574Z,25.60
2022-09-26T01:34:54.034Z,27.10
2022-09-26T01:37:51.677Z,26.90
2022-09-26T01:40:53.936Z,26.50
2022-09-26T01:43:40.178Z,26.00
2022-09-26T01:46:14.391Z,26.30
2022-09-26T01:48:52.921Z,24.00
2022-09-26T01:51:32.936Z,29.80
2022-09-26T01:54:18.162Z,26.80
2022-09-26T01:56:48.999Z,24.30
2022-09-26T01:59:41.062Z,30.20
2022-09-26T02:02:19.463Z,25.30
2022-09-26T02:04:53.535Z,27.60
2022-09-26T02:07:34.595Z,23.00
2022-09-26T02:10:28.974Z,25.00
2022-09-26T02:13:11.739Z,29.00
2022-09-26T02:15:40.631Z,22.80
2022-09-26T02:18:29.073Z,24.30
2022-09-26T02:21:12.187Z,24.00
2022-09-26T02:23:40.480Z,22.40
2022-09-26T02:26:09.119Z,21.30
2022-09-26T02:28:37.454Z,22.30
2022-09-26T02:31:08.640Z,19.80
2022-09-26T02:33:37.010Z,20.90
2022-09-26T02:36:10.502Z,21.70
2022-09-26T02:38:38.782Z,25.70
2022-09-26T02:42:01.047Z,24.50
2022-09-26T02:44:36.180Z,20.10
2022-09-26T02:47:16.626Z,21.50
2022-09-26T02:50:09.063Z,21.20
2022-09-26T02:52:56.559Z,20.30
2022-09-26T02:55:41.249Z,18.70
2022-09-26T02:58:36.144Z,20.30
2022-09-26T03:01:16.153Z,22.20
2022-09-26T03:04:14.984Z,20.30
2022-09-26T03:06:46.808Z,22.50
2022-09-26T03:09:17.904Z,21.90
2022-09-26T03:11:47.928Z,21.90
2022-09-26T03:14:18.343Z,20.60
2022-09-26T03:16:51.576Z,21.20
2022-09-26T03:19:33.944Z,26.90
2022-09-26T03:22:02.724Z,20.00
2022-09-26T03:24:32.926Z,21.90
2022-09-26T03:27:05.314Z,19.60
2022-09-26T03:29:34.446Z,18.20
2022-09-26T03:32:03.032Z,20.40
2022-09-26T03:34:31.542Z,20.40
2022-09-26T03:37:01.159Z,19.90
2022-09-26T03:39:29.385Z,20.40
2022-09-26T03:42:10.733Z,18.60
2022-09-26T03:44:40.410Z,21.70
2022-09-26T03:47:08.694Z,19.50
2022-09-26T03:49:41.099Z,23.40
2022-09-26T03:52:13.964Z,22.20
2022-09-26T03:54:44.382Z,22.10
2022-09-26T03:57:14.114Z,21.20
2022-09-26T03:59:49.537Z,19.50
2022-09-26T04:02:20.032Z,18.00
2022-09-26T04:04:50.033Z,18.20
2022-09-26T04:07:18.267Z,17.50
2022-09-26T04:09:48.835Z,18.80
2022-09-26T04:12:18.129Z,19.40
2022-09-26T04:14:46.970Z,19.40
2022-09-26T04:17:15.223Z,19.20
2022-09-26T04:19:45.517Z,22.10
2022-09-26T04:22:14.033Z,17.70
2022-09-26T04:24:42.392Z,22.30
2022-09-26T04:27:10.717Z,26.70
2022-09-26T04:29:39.507Z,25.50
2022-09-26T04:32:28.176Z,23.50
2022-09-26T04:35:19.261Z,23.20
2022-09-26T04:37:47.719Z,24.70
2022-09-26T04:40:16.350Z,22.70
2022-09-26T04:42:54.795Z,23.60
2022-09-26T04:45:23.368Z,21.10
2022-09-26T04:47:51.697Z,20.70
2022-09-26T04:50:26.469Z,21.20
2022-09-26T04:53:09.283Z,21.30
2022-09-26T04:55:46.845Z,23.30
2022-09-26T04:58:16.756Z,27.20
2022-09-26T05:00:48.077Z,22.40
2022-09-26T05:03:19.156Z,20.80
2022-09-26T05:05:47.589Z,20.20
2022-09-26T05:08:16.298Z,20.00
2022-09-26T05:10:44.582Z,22.30
2022-09-26T05:13:12.911Z,20.50
2022-09-26T05:15:43.177Z,21.40
2022-09-26T05:18:11.869Z,21.90
2022-09-26T05:20:40.337Z,20.70
2022-09-26T05:23:10.504Z,22.20
2022-09-26T05:25:59.617Z,22.60
2022-09-26T05:28:27.950Z,20.80
2022-09-26T05:30:57.014Z,25.30
2022-09-26T05:33:25.344Z,19.10
2022-09-26T05:35:54.195Z,26.30
2022-09-26T05:38:22.562Z,24.60
2022-09-26T05:40:56.888Z,21.60
2022-09-26T05:43:31.046Z,24.60
2022-09-26T05:46:01.553Z,20.80
2022-09-26T05:48:36.662Z,22.90
2022-09-26T05:51:12.593Z,25.20
2022-09-26T05:53:45.103Z,26.90
2022-09-26T05:56:18.953Z,28.20
2022-09-26T05:59:07.105Z,38.10
2022-09-26T06:02:08.338Z,37.00
2022-09-26T06:04:54.209Z,30.20
2022-09-26T06:07:34.946Z,31.50
2022-09-26T06:10:06.695Z,28.00
2022-09-26T06:12:55.170Z,26.80
2022-09-26T06:15:25.163Z,29.70
2022-09-26T06:18:04.494Z,28.50
2022-09-26T06:20:33.930Z,25.70
2022-09-26T06:23:02.250Z,28.50
2022-09-26T06:25:30.519Z,27.00
2022-09-26T06:28:02.058Z,25.00
2022-09-26T06:30:31.594Z,25.80
2022-09-26T06:33:11.454Z,27.10
2022-09-26T06:36:06.577Z,22.80
2022-09-26T06:38:38.568Z,23.10
2022-09-26T06:41:11.208Z,20.90
2022-09-26T06:43:41.058Z,22.40
2022-09-26T06:46:28.281Z,22.40
2022-09-26T06:48:59.364Z,21.40
2022-09-26T06:51:49.475Z,22.50
2022-09-26T06:54:19.072Z,23.90
2022-09-26T06:56:48.311Z,23.90
2022-09-26T06:59:17.962Z,19.90
2022-09-26T07:02:04.266Z,21.40
2022-09-26T07:05:02.883Z,20.60
2022-09-26T07:07:42.369Z,18.80
2022-09-26T07:10:21.247Z,22.00
2022-09-26T07:13:07.263Z,30.40
2022-09-26T07:15:37.134Z,22.10
2022-09-26T07:18:31.709Z,21.00
2022-09-26T07:21:15.390Z,21.40
2022-09-26T07:24:19.287Z,20.70
2022-09-26T07:26:47.643Z,21.80
2022-09-26T07:29:16.100Z,22.10
2022-09-26T07:31:44.736Z,24.40
2022-09-26T07:34:26.094Z,23.40
2022-09-26T07:36:54.451Z,22.10
2022-09-26T07:39:23.642Z,24.60
2022-09-26T07:41:52.757Z,26.10
2022-09-26T07:47:27.998Z,23.40
2022-09-26T07:50:13.475Z,24.30
2022-09-26T07:53:00.554Z,24.70
2022-09-26T07:55:28.991Z,23.80
2022-09-26T07:58:34.049Z,28.50
2022-09-26T08:01:26.121Z,26.00
2022-09-26T08:04:00.603Z,24.40
2022-09-26T08:06:37.550Z,24.60
2022-09-26T08:09:07.105Z,23.50
2022-09-26T08:11:56.022Z,21.70
2022-09-26T08:14:42.584Z,20.40
2022-09-26T08:17:21.567Z,20.60
2022-09-26T08:19:49.991Z,21.70
2022-09-26T08:22:18.367Z,21.80
2022-09-26T08:24:51.018Z,21.90
2022-09-26T08:27:38.207Z,18.80
2022-09-26T08:30:07.816Z,15.80
2022-09-26T08:32:37.341Z,14.30
2022-09-26T08:35:06.416Z,15.90
2022-09-26T08:37:53.591Z,14.00
2022-09-26T08:41:02.118Z,14.00
2022-09-26T08:44:10.171Z,13.70
2022-09-26T08:47:05.991Z,17.20
2022-09-26T08:49:54.752Z,11.90
2022-09-26T08:52:45.005Z,12.90
2022-09-26T08:55:24.211Z,13.20
2022-09-26T08:58:13.329Z,14.10
2022-09-26T09:00:42.252Z,11.40
2022-09-26T09:03:19.238Z,12.90
2022-09-26T09:05:59.364Z,12.90
2022-09-26T09:08:38.936Z,11.50
2022-09-26T09:11:58.073Z,11.20
2022-09-26T09:14:27.485Z,12.80
2022-09-26T09:17:47.199Z,13.20
2022-09-26T09:21:12.024Z,11.60
2022-09-26T09:24:19.237Z,14.30
2022-09-26T09:30:22.834Z,11.80
2022-09-26T09:33:05.834Z,45.40
2022-09-26T09:35:54.942Z,29.60
2022-09-26T09:38:37.202Z,18.40
2022-09-26T09:41:36.471Z,13.00
2022-09-26T09:44:16.505Z,16.00
2022-09-26T09:46:45.071Z,16.10
2022-09-26T09:49:31.310Z,16.50
2022-09-26T09:52:20.253Z,14.40
2022-09-26T09:55:16.567Z,14.90
2022-09-26T09:58:09.759Z,14.00
2022-09-26T10:00:49.053Z,15.80
2022-09-26T10:03:31.183Z,13.70
2022-09-26T10:06:02.003Z,12.00
2022-09-26T10:08:37.182Z,16.10
2022-09-26T10:11:41.761Z,15.30
2022-09-26T10:14:42.854Z,15.90
2022-09-26T10:17:29.919Z,17.40
2022-09-26T10:20:36.869Z,14.10
2022-09-26T10:23:30.985Z,11.30
2022-09-26T10:26:11.383Z,13.00
2022-09-26T10:28:53.031Z,13.40
2022-09-26T10:31:30.170Z,13.10
2022-09-26T10:34:28.163Z,16.80
2022-09-26T10:36:57.016Z,11.80
2022-09-26T10:39:49.203Z,17.00
2022-09-26T10:42:21.271Z,13.90
2022-09-26T10:44:57.756Z,14.90
2022-09-26T10:47:47.583Z,16.90
2022-09-26T10:50:36.763Z,15.50
2022-09-26T10:53:41.430Z,18.20
2022-09-26T10:56:20.387Z,18.50
2022-09-26T10:58:52.219Z,19.60
2022-09-26T11:01:31.512Z,21.70
2022-09-26T11:04:43.134Z,25.70
2022-09-26T11:07:52.573Z,26.20
2022-09-26T11:10:46.794Z,31.80
2022-09-26T11:13:30.189Z,29.70
2022-09-26T11:16:08.891Z,30.60
2022-09-26T11:18:49.698Z,34.30
2022-09-26T11:21:41.420Z,31.70
2022-09-26T11:24:46.063Z,31.20
2022-09-26T11:27:31.747Z,35.40
2022-09-26T11:30:09.830Z,35.80
2022-09-26T11:32:45.308Z,35.70
2022-09-26T11:36:11.185Z,37.60
2022-09-26T11:38:46.481Z,33.70
2022-09-26T11:41:59.678Z,34.70
2022-09-26T11:44:58.761Z,33.60
2022-09-26T11:47:49.968Z,33.70
2022-09-26T11:50:58.838Z,32.60
2022-09-26T11:53:55.481Z,32.70
2022-09-26T11:56:48.444Z,27.00
2022-09-26T11:59:31.730Z,26.00
2022-09-26T12:02:03.648Z,25.20
2022-09-26T12:05:14.162Z,24.50
2022-09-26T12:08:00.563Z,21.00
2022-09-26T12:10:53.397Z,25.80
2022-09-26T12:13:40.498Z,23.00
2022-09-26T12:16:36.051Z,24.60
2022-09-26T12:19:19.996Z,23.20
2022-09-26T12:22:25.758Z,15.40
2022-09-26T12:28:01.822Z,13.30
2022-09-26T12:30:40.690Z,12.60
2022-09-26T12:33:08.844Z,18.80
2022-09-26T12:36:19.099Z,15.50
2022-09-26T12:39:08.926Z,13.90
2022-09-26T12:42:09.078Z,13.80
2022-09-26T12:44:39.952Z,16.60
2022-09-26T12:47:15.490Z,11.70
2022-09-26T12:50:02.894Z,11.40
2022-09-26T12:52:44.792Z,10.90
2022-09-26T12:55:45.117Z,8.10
2022-09-26T12:58:43.927Z,8.70
2022-09-26T13:01:31.264Z,8.10
2022-09-26T13:04:21.978Z,6.50
2022-09-26T13:07:14.308Z,7.20
2022-09-26T13:09:44.374Z,8.80
2022-09-26T13:12:47.642Z,7.30
2022-09-26T13:16:18.735Z,7.10
2022-09-26T13:19:01.622Z,8.80
2022-09-26T13:21:47.618Z,7.80
2022-09-26T13:24:25.599Z,7.30
2022-09-26T13:27:04.655Z,8.30
2022-09-26T13:29:37.647Z,8.30
2022-09-26T13:32:35.585Z,8.10
2022-09-26T13:35:17.010Z,7.90
2022-09-26T13:38:01.272Z,8.40
2022-09-26T13:40:51.944Z,10.70
2022-09-26T13:43:43.715Z,19.80
2022-09-26T13:46:30.454Z,9.80
2022-09-26T13:49:31.270Z,8.40
2022-09-26T13:52:17.844Z,7.70
2022-09-26T13:55:02.938Z,7.40
2022-09-26T13:58:09.995Z,7.90
2022-09-26T14:00:41.032Z,6.90
2022-09-26T14:03:18.527Z,6.60
2022-09-26T14:05:52.844Z,6.90
2022-09-26T14:08:45.699Z,6.60
2022-09-26T14:11:32.742Z,8.70
2022-09-26T14:14:19.518Z,7.90
2022-09-26T14:16:51.278Z,8.80
2022-09-26T14:19:57.337Z,8.10
2022-09-26T14:22:25.919Z,7.90
2022-09-26T14:24:56.076Z,8.40
2022-09-26T14:27:37.441Z,9.40
2022-09-26T14:30:24.496Z,10.90
2022-09-26T14:33:02.246Z,9.30
2022-09-26T14:35:34.729Z,14.60
2022-09-26T14:38:09.803Z,9.80
2022-09-26T14:40:39.208Z,9.30
2022-09-26T14:43:16.308Z,10.90
2022-09-26T14:46:00.738Z,10.40
2022-09-26T14:48:29.030Z,33.30
2022-09-26T14:51:21.736Z,31.60
2022-09-26T14:54:17.252Z,26.00
2022-09-26T14:56:57.263Z,18.50
2022-09-26T14:59:25.569Z,14.00
2022-09-26T15:02:21.887Z,11.80
2022-09-26T15:05:06.819Z,15.10
2022-09-26T15:07:43.960Z,14.90
2022-09-26T15:10:12.171Z,11.20
2022-09-26T15:13:18.508Z,8.90
2022-09-26T15:16:11.797Z,10.10
2022-09-26T15:19:05.619Z,11.30
2022-09-26T15:21:40.327Z,11.20
2022-09-26T15:26:58.632Z,8.80
2022-09-26T15:29:27.584Z,7.70
2022-09-26T15:31:56.107Z,6.80
2022-09-26T15:34:33.969Z,8.30
2022-09-26T15:37:14.667Z,8.60
2022-09-26T15:39:43.477Z,8.30
2022-09-26T15:42:33.493Z,7.90
2022-09-26T15:45:15.664Z,6.60
2022-09-26T15:47:44.190Z,22.70
2022-09-26T15:50:23.481Z,46.60
2022-09-26T15:53:14.047Z,14.20
2022-09-26T15:55:48.014Z,9.30
2022-09-26T15:58:21.035Z,12.90
2022-09-26T16:00:52.357Z,19.20
2022-09-26T16:03:26.700Z,24.90
2022-09-26T16:05:55.406Z,30.60
2022-09-26T16:08:32.076Z,35.40
2022-09-26T16:11:02.073Z,21.80
2022-09-26T16:13:42.991Z,13.50
2022-09-26T16:16:19.086Z,11.50
2022-09-26T16:18:56.488Z,8.30
2022-09-26T16:21:32.223Z,11.90
2022-09-26T16:24:34.516Z,10.90
2022-09-26T16:27:22.840Z,16.40
2022-09-26T16:29:52.386Z,24.90
2022-09-26T16:32:22.768Z,22.00
2022-09-26T16:34:51.210Z,13.00
2022-09-26T16:37:23.114Z,12.90
2022-09-26T16:39:59.906Z,13.60
2022-09-26T16:42:32.943Z,37.30
2022-09-26T16:45:05.552Z,33.20
2022-09-26T16:47:45.304Z,46.20
2022-09-26T16:50:33.637Z,68.80
2022-09-26T16:53:03.367Z,46.40
2022-09-26T16:55:34.302Z,37.20
2022-09-26T16:58:05.358Z,29.10
2022-09-26T17:00:54.263Z,48.90
2022-09-26T17:03:29.947Z,59.30
2022-09-26T17:05:59.813Z,39.60
2022-09-26T17:08:28.734Z,60.60
2022-09-26T17:11:03.162Z,61.00
2022-09-26T17:13:35.619Z,58.40
2022-09-26T17:16:04.156Z,60.40
2022-09-26T17:18:35.073Z,70.50
2022-09-26T17:21:03.441Z,37.00
2022-09-26T17:23:40.538Z,21.20
2022-09-26T17:26:19.477Z,28.50
2022-09-26T17:28:49.597Z,22.20
2022-09-26T17:31:21.818Z,24.90
2022-09-26T17:33:53.466Z,22.80
2022-09-26T17:36:26.325Z,26.10
2022-09-26T17:38:57.827Z,37.10
2022-09-26T17:41:28.080Z,24.80
2022-09-26T17:44:00.857Z,57.00
2022-09-26T17:46:30.393Z,39.70
2022-09-26T17:48:59.525Z,30.60
2022-09-26T17:51:29.474Z,32.10
2022-09-26T17:53:57.927Z,21.70
2022-09-26T17:56:26.622Z,24.40
2022-09-26T17:58:55.790Z,21.20
2022-09-26T18:01:28.311Z,24.20
2022-09-26T18:04:01.138Z,31.80
2022-09-26T18:06:33.015Z,36.30
2022-09-26T18:09:07.740Z,33.20
2022-09-26T18:11:37.485Z,31.60
2022-09-26T18:14:08.308Z,31.50
2022-09-26T18:16:36.727Z,32.00
2022-09-26T18:19:07.605Z,27.60
2022-09-26T18:21:36.760Z,26.30
2022-09-26T18:24:07.166Z,28.20
2022-09-26T18:26:42.412Z,24.40
2022-09-26T18:29:15.393Z,32.20
2022-09-26T18:31:46.010Z,45.70
2022-09-26T18:34:18.791Z,53.80
2022-09-26T18:36:49.133Z,136.20
2022-09-26T18:39:17.595Z,73.70
2022-09-26T18:41:46.256Z,39.80
2022-09-26T18:44:17.480Z,30.00
2022-09-26T18:46:48.338Z,26.20
2022-09-26T18:49:17.552Z,29.90
2022-09-26T18:51:46.968Z,31.50
2022-09-26T18:54:17.757Z,30.10
2022-09-26T18:57:05.553Z,26.80
2022-09-26T18:59:33.824Z,26.70
2022-09-26T19:02:04.337Z,39.20
2022-09-26T19:04:33.526Z,28.60
2022-09-26T19:07:06.765Z,31.80
2022-09-26T19:09:36.540Z,30.30
2022-09-26T19:12:05.218Z,27.70
2022-09-26T19:14:33.513Z,28.40
2022-09-26T19:17:01.843Z,28.80
2022-09-26T19:19:32.544Z,26.80
2022-09-26T19:22:08.267Z,26.40
2022-09-26T19:24:59.539Z,40.30
2022-09-26T19:27:36.295Z,42.20
2022-09-26T19:30:17.138Z,33.00
2022-09-26T19:32:56.311Z,26.90
2022-09-26T19:35:31.949Z,25.80
2022-09-26T19:38:01.732Z,25.80
2022-09-26T19:40:30.292Z,30.70
2022-09-26T19:42:59.055Z,28.80
2022-09-26T19:45:27.457Z,29.20
2022-09-26T19:47:56.272Z,30.40
2022-09-26T19:50:28.819Z,26.70
2022-09-26T19:53:00.843Z,25.00
2022-09-26T19:55:31.019Z,26.40
2022-09-26T19:58:12.395Z,28.20
2022-09-26T20:00:43.625Z,24.20
2022-09-26T20:03:25.627Z,35.50
2022-09-26T20:05:54.167Z,30.80
2022-09-26T20:08:25.641Z,25.60
2022-09-26T20:10:55.934Z,31.00
2022-09-26T20:13:24.233Z,24.30
2022-09-26T20:15:52.570Z,20.10
2022-09-26T20:18:24.649Z,19.60
2022-09-26T20:20:55.747Z,23.80
2022-09-26T20:23:27.543Z,21.30
2022-09-26T20:25:56.624Z,19.90
2022-09-26T20:28:24.998Z,22.50
2022-09-26T20:30:55.550Z,26.50
2022-09-26T20:33:26.329Z,29.40
2022-09-26T20:36:03.012Z,31.10
2022-09-26T20:38:48.231Z,42.00
2022-09-26T20:41:36.219Z,39.00
2022-09-26T20:44:29.312Z,28.40
2022-09-26T20:47:04.714Z,30.10
2022-09-26T20:49:43.972Z,33.30
2022-09-26T20:52:20.852Z,36.60
2022-09-26T20:54:50.097Z,33.30
2022-09-26T20:57:19.834Z,33.30
2022-09-26T20:59:48.872Z,34.40
2022-09-26T21:02:23.666Z,31.90
2022-09-26T21:04:52.448Z,24.10
2022-09-26T21:07:21.264Z,22.60
2022-09-26T21:09:50.528Z,35.90
2022-09-26T21:12:19.350Z,29.20
2022-09-26T21:14:47.981Z,25.60
2022-09-26T21:17:27.661Z,23.30
2022-09-26T21:19:56.255Z,29.20
2022-09-26T21:22:47.675Z,28.10
2022-09-26T21:25:18.842Z,22.50
2022-09-26T21:27:56.601Z,23.80
2022-09-26T21:30:25.558Z,24.70
2022-09-26T21:32:57.379Z,26.70
2022-09-26T21:35:29.623Z,24.70
2022-09-26T21:38:00.876Z,28.20
2022-09-26T21:40:32.342Z,24.60
2022-09-26T21:43:11.767Z,40.80
2022-09-26T21:45:43.705Z,32.40
2022-09-26T21:48:14.142Z,26.80
2022-09-26T21:50:47.436Z,30.10
2022-09-26T21:53:22.014Z,26.30
2022-09-26T21:55:55.163Z,21.90
2022-09-26T21:58:28.074Z,22.10
2022-09-26T22:00:57.813Z,20.00
2022-09-26T22:03:26.255Z,17.20
2022-09-26T22:05:54.493Z,18.30
2022-09-26T22:08:22.804Z,17.80
2022-09-26T22:10:54.078Z,16.70
2022-09-26T22:13:22.278Z,16.30
2022-09-26T22:15:50.591Z,17.80
2022-09-26T22:18:18.769Z,18.60
2022-09-26T22:20:47.287Z,20.70
2022-09-26T22:23:15.461Z,22.50
2022-09-26T22:25:49.586Z,28.00
2022-09-26T22:28:18.062Z,30.40
2022-09-26T22:30:46.336Z,29.00
2022-09-26T22:33:14.685Z,24.20
2022-09-26T22:35:47.440Z,23.30
2022-09-26T22:38:16.095Z,25.40
2022-09-26T22:40:45.555Z,26.00
2022-09-26T22:43:13.862Z,25.10
2022-09-26T22:45:42.048Z,26.70
2022-09-26T22:48:10.253Z,27.00
2022-09-26T22:50:38.451Z,25.70
2022-09-26T22:53:06.667Z,31.40
2022-09-26T22:55:34.941Z,28.80
2022-09-26T22:58:03.349Z,23.00
2022-09-26T23:00:31.701Z,18.80
2022-09-26T23:02:59.932Z,17.80
2022-09-26T23:05:28.256Z,17.30
2022-09-26T23:07:56.521Z,14.80
2022-09-26T23:10:25.058Z,17.20
2022-09-26T23:12:53.351Z,15.90
2022-09-26T23:15:21.651Z,16.90
2022-09-26T23:17:49.971Z,15.90
2022-09-26T23:20:18.169Z,19.80
2022-09-26T23:22:46.401Z,19.00
2022-09-26T23:25:14.720Z,26.70
2022-09-26T23:27:42.920Z,15.50
2022-09-26T23:30:11.846Z,16.70
2022-09-26T23:32:40.115Z,19.20
2022-09-26T23:35:08.541Z,17.80
2022-09-26T23:37:36.691Z,14.30
2022-09-26T23:40:05.408Z,17.30
2022-09-26T23:42:33.670Z,22.40
2022-09-26T23:45:01.970Z,20.20
2022-09-26T23:47:30.235Z,18.10
2022-09-26T23:49:58.475Z,20.90
2022-09-26T23:52:26.697Z,15.80
2022-09-26T23:54:54.960Z,17.80
2022-09-26T23:57:24.197Z,15.70
2022-09-26T23:59:52.479Z,17.00
